Terminal Aerodrome Forecast
Issued by NWS

Home | Current Version | Previous Version | Text Only | Print | Product List | Glossary On
Versions: 1 2 3 4 5 6 7 8 9 10 11 12 13 14 15
000
FTUS43 KGRB 291730
TAFMTW
TAF
KMTW 291730Z 2918/3018 26015G28KT P6SM VCSH BKN035 OVC070
      TEMPO 2920/2924 4SM SHRA OVC035
     FM300000 26009G17KT P6SM BKN090
     FM300400 26009KT P6SM SCT120
     FM301300 26012G19KT P6SM SCT080=

USA.gov is the U.S. government's official web portal to all federal, state and local government web resources and services.